Time;durP1;ratioP1;P1;durP2;ratioP2;P2;SDS_P1;SDS_P2;PMS_P1;PMS_P2;Temp;Humidity;BMP_temperature;BMP_pressure;BME280_temperature;BME280_humidity;BME280_pressure;Samples;Min_cycle;Max_cycle;Signal;HPM_P1;HPM_P2
2022/01/05 00:08:18;;;;;;;33.07;12.97;;;;;;;3.34;100.00;98308.50;21089860;28;20320;-58
2022/01/05 00:18:21;;;;;;;28.90;13.67;;;;;;;3.56;100.00;98330.69;21090691;28;20598;-58
2022/01/05 00:28:24;;;;;;;32.70;14.43;;;;;;;3.54;100.00;98337.00;21061298;28;20225;-58
2022/01/05 00:38:26;;;;;;;34.43;15.40;;;;;;;3.73;100.00;98358.56;21089114;28;20284;-58
2022/01/05 00:48:32;;;;;;;46.30;23.77;;;;;;;4.03;100.00;98354.75;21088637;28;20214;-58
2022/01/05 00:58:35;;;;;;;40.47;20.03;;;;;;;4.25;100.00;98384.00;21087706;28;20191;-58
2022/01/05 01:08:38;;;;;;;40.00;20.17;;;;;;;4.35;100.00;98393.78;21086066;28;20292;-58
2022/01/05 01:18:41;;;;;;;50.37;23.87;;;;;;;4.42;100.00;98394.22;21085264;28;20198;-58
2022/01/05 01:28:43;;;;;;;39.50;17.23;;;;;;;4.53;100.00;98402.25;21082003;28;20253;-59
2022/01/05 01:38:46;;;;;;;41.67;17.40;;;;;;;4.59;100.00;98406.22;21049489;28;20194;-59
2022/01/05 01:48:49;;;;;;;44.83;16.70;;;;;;;4.69;100.00;98416.06;21077316;28;20294;-59
2022/01/05 01:58:52;;;;;;;50.43;19.47;;;;;;;4.77;100.00;98412.88;21082701;28;20653;-58
2022/01/05 02:08:54;;;;;;;46.23;17.20;;;;;;;4.92;100.00;98434.72;21080329;28;20234;-58
2022/01/05 02:19:01;;;;;;;43.43;17.63;;;;;;;4.99;100.00;98431.53;21081749;28;20285;-58
2022/01/05 02:29:05;;;;;;;60.87;22.93;;;;;;;5.05;100.00;98427.59;21079943;28;20230;-59
2022/01/05 02:39:07;;;;;;;69.17;23.57;;;;;;;5.08;100.00;98435.28;21078675;28;20243;-59
2022/01/05 02:49:10;;;;;;;60.20;22.20;;;;;;;5.12;100.00;98442.06;21079265;28;20222;-59
2022/01/05 02:59:13;;;;;;;62.77;23.87;;;;;;;5.19;100.00;98459.19;21078783;28;20273;-59
2022/01/05 03:09:15;;;;;;;67.73;26.80;;;;;;;5.24;100.00;98478.19;21075822;28;20223;-58
2022/01/05 03:19:18;;;;;;;67.30;27.90;;;;;;;5.24;100.00;98475.53;21082413;28;20673;-59
2022/01/05 03:29:21;;;;;;;82.17;29.73;;;;;;;5.30;100.00;98461.91;21093776;28;20283;-59
2022/01/05 03:39:23;;;;;;;71.50;27.20;;;;;;;5.35;100.00;98449.16;21093966;28;20198;-58
2022/01/05 03:49:26;;;;;;;78.60;29.23;;;;;;;5.38;100.00;98462.19;21073470;28;20261;-58
2022/01/05 03:59:29;;;;;;;68.20;32.00;;;;;;;5.24;100.00;98462.31;21092554;28;20658;-59
2022/01/05 04:09:31;;;;;;;68.23;29.37;;;;;;;4.92;100.00;98459.34;21091354;28;20226;-59
2022/01/05 04:19:35;;;;;;;77.57;33.30;;;;;;;4.60;100.00;98453.66;21091463;28;20217;-58
2022/01/05 04:29:39;;;;;;;73.57;32.23;;;;;;;4.51;100.00;98454.31;21089356;28;20241;-58
2022/01/05 04:39:43;;;;;;;76.70;28.97;;;;;;;4.34;100.00;98475.78;21088180;28;20190;-58
2022/01/05 04:49:46;;;;;;;85.20;31.33;;;;;;;4.27;100.00;98485.03;21088715;28;20287;-58
2022/01/05 04:59:49;;;;;;;87.93;33.13;;;;;;;4.52;100.00;98494.78;21088071;28;20198;-59
2022/01/05 05:09:51;;;;;;;83.00;30.33;;;;;;;4.64;100.00;98473.66;21082249;28;20294;-59
2022/01/05 05:19:54;;;;;;;79.30;26.73;;;;;;;4.67;100.00;98489.28;21086618;28;20195;-58
2022/01/05 05:29:57;;;;;;;65.83;25.00;;;;;;;4.67;100.00;98523.63;21052385;28;20309;-60
2022/01/05 05:40:00;;;;;;;67.07;28.37;;;;;;;4.61;100.00;98528.47;20991663;28;20221;-58
2022/01/05 05:50:03;;;;;;;75.10;27.37;;;;;;;4.74;100.00;98554.91;21057490;28;20287;-57
2022/01/05 06:00:07;;;;;;;67.97;24.87;;;;;;;4.92;100.00;98572.16;21052729;28;20213;-59
2022/01/05 06:10:10;;;;;;;76.67;26.60;;;;;;;5.03;100.00;98580.19;21038091;28;20258;-59
2022/01/05 06:20:13;;;;;;;81.23;28.03;;;;;;;5.00;100.00;98586.50;21013378;28;20198;-58
2022/01/05 06:30:15;;;;;;;74.50;27.30;;;;;;;4.98;100.00;98598.97;21021254;28;20226;-58
2022/01/05 06:40:18;;;;;;;70.93;28.23;;;;;;;4.90;100.00;98608.41;20984746;28;20757;-58
2022/01/05 06:50:21;;;;;;;75.80;30.67;;;;;;;4.81;100.00;98598.47;21030010;28;20317;-58
2022/01/05 07:00:26;;;;;;;69.03;25.53;;;;;;;4.78;100.00;98618.00;21056392;28;20234;-58
2022/01/05 07:10:29;;;;;;;60.83;23.70;;;;;;;4.88;100.00;98591.78;21053678;28;20303;-60
2022/01/05 07:20:32;;;;;;;61.93;22.63;;;;;;;4.94;100.00;98604.59;21024513;28;20283;-61
2022/01/05 07:30:34;;;;;;;74.03;24.90;;;;;;;5.06;100.00;98609.03;21035645;28;20228;-59
2022/01/05 07:40:37;;;;;;;71.03;27.03;;;;;;;5.17;100.00;98603.84;21058578;28;20205;-57
2022/01/05 07:50:40;;;;;;;75.03;23.53;;;;;;;5.35;100.00;98607.84;21051964;28;20627;-59
2022/01/05 08:00:43;;;;;;;82.33;26.53;;;;;;;5.44;100.00;98599.25;21022953;28;20661;-59
2022/01/05 08:10:45;;;;;;;62.67;22.53;;;;;;;5.40;100.00;98589.88;21027915;28;20775;-59
2022/01/05 08:20:48;;;;;;;68.23;23.67;;;;;;;5.35;100.00;98589.34;21037778;28;20201;-59
2022/01/05 08:30:51;;;;;;;71.80;25.90;;;;;;;5.26;100.00;98597.91;21049113;28;20246;-58
2022/01/05 08:40:54;;;;;;;66.97;24.17;;;;;;;5.19;100.00;98596.66;21063517;28;20190;-58
2022/01/05 08:50:57;;;;;;;73.63;25.73;;;;;;;5.31;100.00;98610.84;21059237;28;20246;-59
2022/01/05 09:01:00;;;;;;;68.77;25.90;;;;;;;5.59;100.00;98599.13;21062455;28;20214;-59
2022/01/05 09:20:59;;;;;;;62.90;24.57;;;;;;;6.13;100.00;98605.75;21043597;28;20613;-55
2022/01/05 09:31:01;;;;;;;57.43;24.77;;;;;;;6.24;100.00;98596.19;21041582;28;20185;-55
2022/01/05 09:51:25;;;;;;;59.27;26.27;;;;;;;6.67;100.00;98601.75;21021035;28;20652;-56
2022/01/05 10:01:33;;;;;;;62.40;27.50;;;;;;;6.53;100.00;98616.03;21062780;28;20199;-56
2022/01/05 10:11:36;;;;;;;65.70;26.27;;;;;;;6.26;100.00;98605.72;21061708;28;20237;-56
2022/01/05 10:21:39;;;;;;;66.83;26.30;;;;;;;6.09;100.00;98604.28;21062516;28;20194;-56
2022/01/05 10:31:44;;;;;;;62.83;24.10;;;;;;;6.14;100.00;98596.88;21008313;28;20273;-56
2022/01/05 10:41:47;;;;;;;68.93;26.13;;;;;;;6.13;100.00;98592.53;21005206;28;20263;-56
2022/01/05 10:51:51;;;;;;;70.27;25.10;;;;;;;6.23;100.00;98586.53;21004272;28;20239;-56
2022/01/05 11:01:58;;;;;;;68.63;26.00;;;;;;;6.56;100.00;98580.50;21003620;28;20189;-56
2022/01/05 11:12:01;;;;;;;67.17;25.10;;;;;;;6.72;100.00;98555.38;21002689;28;20228;-56
2022/01/05 11:22:14;;;;;;;63.23;26.57;;;;;;;6.61;100.00;98558.03;21001902;28;20244;-56
2022/01/05 11:32:20;;;;;;;68.93;28.83;;;;;;;6.45;100.00;98570.72;20999679;28;20240;-56
2022/01/05 11:42:30;;;;;;;63.50;23.80;;;;;;;6.35;100.00;98561.78;20999195;28;20267;-56
2022/01/05 11:52:55;;;;;;;58.00;23.93;;;;;;;6.46;100.00;98559.16;20999213;28;20639;-56
2022/01/05 12:02:59;;;;;;;60.20;24.17;;;;;;;6.15;100.00;98544.75;20998484;28;20196;-56
2022/01/05 12:13:03;;;;;;;58.50;23.80;;;;;;;5.98;100.00;98551.28;20997764;28;20617;-56
2022/01/05 12:23:18;;;;;;;57.37;21.97;;;;;;;5.88;100.00;98518.50;20997022;28;20199;-56
2022/01/05 12:33:25;;;;;;;57.13;21.73;;;;;;;5.85;100.00;98505.47;20994994;28;20220;-56
2022/01/05 12:43:28;;;;;;;50.30;21.83;;;;;;;5.71;100.00;98521.50;20994071;28;20196;-56
2022/01/05 12:53:56;;;;;;;47.03;21.13;;;;;;;5.57;100.00;98524.31;20994989;28;20226;-56
2022/01/05 13:04:00;;;;;;;38.17;19.83;;;;;;;5.48;100.00;98528.47;20975474;28;20257;-56
2022/01/05 13:23:59;;;;;;;20.63;13.13;;;;;;;4.85;100.00;98560.28;21236314;27;20964;-55
2022/01/05 13:34:08;;;;;;;18.80;12.83;;;;;;;4.09;100.00;98581.31;21235953;27;20192;-54
2022/01/05 13:44:11;;;;;;;17.37;11.93;;;;;;;3.85;100.00;98579.34;21235266;27;20189;-55
2022/01/05 14:04:10;;;;;;;17.47;11.77;;;;;;;3.65;100.00;98595.56;21151698;27;20542;-56
2022/01/05 14:14:13;;;;;;;20.00;12.53;;;;;;;3.49;100.00;98608.06;21149383;28;20246;-56
2022/01/05 14:34:16;;;;;;;13.27;9.10;;;;;;;3.24;100.00;98670.19;21151561;27;20597;-54
2022/01/05 14:44:24;;;;;;;9.50;6.77;;;;;;;2.89;100.00;98679.38;21118263;28;20200;-56
2022/01/05 14:54:34;;;;;;;6.73;5.00;;;;;;;2.71;100.00;98688.34;21092108;28;20192;-55
2022/01/05 15:34:24;;;;;;;15.00;8.67;;;;;;;2.71;100.00;98748.91;21152336;27;20541;-57
2022/01/05 15:54:21;;;;;;;33.27;17.97;;;;;;;2.65;100.00;98754.53;21151357;27;20559;-56
2022/01/05 16:04:24;;;;;;;22.50;13.57;;;;;;;2.62;100.00;98767.88;21148948;28;20192;-55
2022/01/05 16:34:19;;;;;;;27.30;14.63;;;;;;;2.57;100.00;98780.44;21104233;27;20588;-56
2022/01/05 16:44:21;;;;;;;31.80;15.00;;;;;;;2.56;100.00;98794.53;21103887;28;20196;-58
2022/01/05 16:54:24;;;;;;;34.07;17.20;;;;;;;2.50;100.00;98799.22;21148127;28;20716;-58
2022/01/05 17:04:27;;;;;;;27.63;16.20;;;;;;;2.36;100.00;98817.56;21067614;28;20197;-58
2022/01/05 17:14:30;;;;;;;31.70;16.93;;;;;;;2.13;100.00;98808.28;21064246;28;20233;-57
2022/01/05 17:24:32;;;;;;;31.33;16.07;;;;;;;2.06;100.00;98822.69;21059863;28;20201;-59
2022/01/05 17:34:36;;;;;;;34.23;16.57;;;;;;;1.97;100.00;98822.34;21022985;28;20184;-58
2022/01/05 18:33:45;;;;;;;22.00;16.83;;;;;;;2.79;100.00;98875.72;21161096;27;20441;-58
2022/01/05 18:43:52;;;;;;;15.07;10.00;;;;;;;2.26;100.00;98870.78;21158478;28;21118;-58
2022/01/05 19:03:50;;;;;;;15.17;9.40;;;;;;;2.23;100.00;98882.31;20996668;27;20603;-57
2022/01/05 19:34:31;;;;;;;19.77;11.20;;;;;;;2.32;100.00;98894.97;21106360;22;20408;-58
2022/01/05 20:14:20;;;;;;;27.30;15.17;;;;;;;2.36;100.00;98922.84;21119514;27;1174658;-60
2022/01/05 20:44:23;;;;;;;22.37;12.20;;;;;;;2.41;100.00;98934.00;20993615;28;20649;-60
2022/01/05 22:33:43;;;;;;;14.97;8.40;;;;;;;2.11;100.00;98930.31;21167559;27;20611;-59
